sensor_id;sensor_type;location;lat;lon;timestamp;P1;durP1;ratioP1;P2;durP2;ratioP2
20846;SDS011;10584;50.854;12.902;2023-03-30T00:01:46;7.20;;;4.07;;
20846;SDS011;10584;50.854;12.902;2023-03-30T00:07:26;8.50;;;4.57;;
20846;SDS011;10584;50.854;12.902;2023-03-30T00:12:50;8.80;;;4.50;;
20846;SDS011;10584;50.854;12.902;2023-03-30T00:18:15;8.63;;;4.60;;
20846;SDS011;10584;50.854;12.902;2023-03-30T00:23:56;9.13;;;4.70;;
20846;SDS011;10584;50.854;12.902;2023-03-30T00:29:25;8.83;;;4.67;;
20846;SDS011;10584;50.854;12.902;2023-03-30T00:34:47;11.73;;;5.00;;
20846;SDS011;10584;50.854;12.902;2023-03-30T00:40:14;11.27;;;5.13;;
20846;SDS011;10584;50.854;12.902;2023-03-30T00:45:38;8.47;;;4.80;;
20846;SDS011;10584;50.854;12.902;2023-03-30T00:51:07;8.77;;;4.77;;
20846;SDS011;10584;50.854;12.902;2023-03-30T00:56:46;9.67;;;4.77;;
20846;SDS011;10584;50.854;12.902;2023-03-30T01:02:43;8.60;;;4.80;;
20846;SDS011;10584;50.854;12.902;2023-03-30T01:08:33;9.70;;;4.80;;
20846;SDS011;10584;50.854;12.902;2023-03-30T01:14:20;8.07;;;4.50;;
20846;SDS011;10584;50.854;12.902;2023-03-30T01:45:02;8.70;;;3.50;;
20846;SDS011;10584;50.854;12.902;2023-03-30T01:50:18;7.83;;;4.00;;
20846;SDS011;10584;50.854;12.902;2023-03-30T01:55:54;6.40;;;3.43;;
20846;SDS011;10584;50.854;12.902;2023-03-30T02:01:49;6.73;;;3.30;;
20846;SDS011;10584;50.854;12.902;2023-03-30T02:07:35;6.67;;;3.60;;
20846;SDS011;10584;50.854;12.902;2023-03-30T02:12:58;7.43;;;3.40;;
20846;SDS011;10584;50.854;12.902;2023-03-30T02:18:39;9.67;;;3.83;;
20846;SDS011;10584;50.854;12.902;2023-03-30T02:24:02;10.03;;;3.23;;
20846;SDS011;10584;50.854;12.902;2023-03-30T02:29:33;5.97;;;3.30;;
20846;SDS011;10584;50.854;12.902;2023-03-30T03:04:32;8.90;;;2.83;;
20846;SDS011;10584;50.854;12.902;2023-03-30T03:10:32;8.60;;;2.87;;
20846;SDS011;10584;50.854;12.902;2023-03-30T03:16:08;8.03;;;2.60;;
20846;SDS011;10584;50.854;12.902;2023-03-30T03:22:05;9.73;;;2.77;;
20846;SDS011;10584;50.854;12.902;2023-03-30T03:27:36;5.37;;;2.93;;
20846;SDS011;10584;50.854;12.902;2023-03-30T03:33:22;5.53;;;2.40;;
20846;SDS011;10584;50.854;12.902;2023-03-30T03:39:12;7.90;;;2.60;;
20846;SDS011;10584;50.854;12.902;2023-03-30T03:44:39;6.60;;;2.63;;
20846;SDS011;10584;50.854;12.902;2023-03-30T03:50:00;5.23;;;2.33;;
20846;SDS011;10584;50.854;12.902;2023-03-30T03:55:26;8.87;;;2.83;;
20846;SDS011;10584;50.854;12.902;2023-03-30T04:00:50;7.00;;;2.30;;
20846;SDS011;10584;50.854;12.902;2023-03-30T04:06:22;5.70;;;2.67;;
20846;SDS011;10584;50.854;12.902;2023-03-30T04:12:08;5.47;;;2.57;;
20846;SDS011;10584;50.854;12.902;2023-03-30T04:17:51;7.70;;;2.57;;
20846;SDS011;10584;50.854;12.902;2023-03-30T04:23:43;10.40;;;2.90;;
20846;SDS011;10584;50.854;12.902;2023-03-30T04:29:44;7.20;;;2.60;;
20846;SDS011;10584;50.854;12.902;2023-03-30T04:35:24;6.80;;;2.30;;
20846;SDS011;10584;50.854;12.902;2023-03-30T04:41:21;9.80;;;2.53;;
20846;SDS011;10584;50.854;12.902;2023-03-30T04:47:29;6.10;;;2.67;;
20846;SDS011;10584;50.854;12.902;2023-03-30T04:53:40;8.43;;;3.00;;
20846;SDS011;10584;50.854;12.902;2023-03-30T04:59:23;6.37;;;2.40;;
20846;SDS011;10584;50.854;12.902;2023-03-30T05:05:06;7.80;;;2.90;;
20846;SDS011;10584;50.854;12.902;2023-03-30T05:10:45;10.90;;;3.13;;
20846;SDS011;10584;50.854;12.902;2023-03-30T05:16:23;10.23;;;3.13;;
20846;SDS011;10584;50.854;12.902;2023-03-30T05:22:08;12.60;;;3.97;;
20846;SDS011;10584;50.854;12.902;2023-03-30T05:27:55;11.87;;;3.37;;
20846;SDS011;10584;50.854;12.902;2023-03-30T05:33:43;6.50;;;3.17;;
20846;SDS011;10584;50.854;12.902;2023-03-30T05:39:32;10.47;;;2.87;;
20846;SDS011;10584;50.854;12.902;2023-03-30T05:45:06;9.70;;;2.60;;
20846;SDS011;10584;50.854;12.902;2023-03-30T05:50:55;6.27;;;2.33;;
20846;SDS011;10584;50.854;12.902;2023-03-30T05:57:01;7.67;;;2.70;;
20846;SDS011;10584;50.854;12.902;2023-03-30T06:02:31;11.63;;;2.60;;
20846;SDS011;10584;50.854;12.902;2023-03-30T06:08:15;7.90;;;2.57;;
20846;SDS011;10584;50.854;12.902;2023-03-30T06:13:45;8.37;;;2.37;;
20846;SDS011;10584;50.854;12.902;2023-03-30T06:19:16;6.83;;;2.77;;
20846;SDS011;10584;50.854;12.902;2023-03-30T06:24:46;9.73;;;2.80;;
20846;SDS011;10584;50.854;12.902;2023-03-30T06:30:08;9.77;;;2.87;;
20846;SDS011;10584;50.854;12.902;2023-03-30T06:35:33;10.20;;;3.43;;
20846;SDS011;10584;50.854;12.902;2023-03-30T06:40:55;11.00;;;3.60;;
20846;SDS011;10584;50.854;12.902;2023-03-30T06:46:49;9.73;;;3.50;;
20846;SDS011;10584;50.854;12.902;2023-03-30T06:52:34;8.67;;;3.70;;
20846;SDS011;10584;50.854;12.902;2023-03-30T06:58:28;10.33;;;3.00;;
20846;SDS011;10584;50.854;12.902;2023-03-30T07:04:18;13.67;;;3.30;;
20846;SDS011;10584;50.854;12.902;2023-03-30T07:10:19;9.13;;;3.13;;
20846;SDS011;10584;50.854;12.902;2023-03-30T07:16:10;11.10;;;3.50;;
20846;SDS011;10584;50.854;12.902;2023-03-30T07:21:54;12.20;;;3.43;;
20846;SDS011;10584;50.854;12.902;2023-03-30T07:27:33;11.97;;;3.60;;
20846;SDS011;10584;50.854;12.902;2023-03-30T07:33:18;12.73;;;3.50;;
20846;SDS011;10584;50.854;12.902;2023-03-30T07:39:03;12.77;;;3.80;;
20846;SDS011;10584;50.854;12.902;2023-03-30T07:44:35;9.97;;;3.80;;
20846;SDS011;10584;50.854;12.902;2023-03-30T07:50:00;8.27;;;3.23;;
20846;SDS011;10584;50.854;12.902;2023-03-30T07:55:22;13.60;;;3.63;;
20846;SDS011;10584;50.854;12.902;2023-03-30T08:00:54;19.67;;;3.20;;
20846;SDS011;10584;50.854;12.902;2023-03-30T08:06:54;7.87;;;2.97;;
20846;SDS011;10584;50.854;12.902;2023-03-30T08:12:28;10.57;;;3.00;;
20846;SDS011;10584;50.854;12.902;2023-03-30T08:18:22;14.47;;;2.90;;
20846;SDS011;10584;50.854;12.902;2023-03-30T08:24:00;9.87;;;3.13;;
20846;SDS011;10584;50.854;12.902;2023-03-30T08:29:26;11.93;;;2.93;;
20846;SDS011;10584;50.854;12.902;2023-03-30T08:34:50;8.00;;;2.80;;
20846;SDS011;10584;50.854;12.902;2023-03-30T08:40:13;11.80;;;3.00;;
20846;SDS011;10584;50.854;12.902;2023-03-30T08:45:39;12.47;;;3.33;;
20846;SDS011;10584;50.854;12.902;2023-03-30T09:03:35;12.57;;;3.90;;
20846;SDS011;10584;50.854;12.902;2023-03-30T09:09:31;10.37;;;3.93;;
20846;SDS011;10584;50.854;12.902;2023-03-30T09:15:07;16.17;;;4.87;;
20846;SDS011;10584;50.854;12.902;2023-03-30T09:20:39;13.10;;;4.63;;
20846;SDS011;10584;50.854;12.902;2023-03-30T09:26:18;9.43;;;4.03;;
20846;SDS011;10584;50.854;12.902;2023-03-30T09:32:41;6.67;;;3.00;;
20846;SDS011;10584;50.854;12.902;2023-03-30T09:38:36;12.47;;;3.47;;
20846;SDS011;10584;50.854;12.902;2023-03-30T09:44:25;9.10;;;3.00;;
20846;SDS011;10584;50.854;12.902;2023-03-30T09:49:58;10.07;;;2.83;;
20846;SDS011;10584;50.854;12.902;2023-03-30T09:55:29;7.57;;;3.40;;
20846;SDS011;10584;50.854;12.902;2023-03-30T10:06:33;16.37;;;5.20;;
20846;SDS011;10584;50.854;12.902;2023-03-30T10:12:39;8.00;;;2.73;;
20846;SDS011;10584;50.854;12.902;2023-03-30T10:18:16;6.77;;;2.80;;
20846;SDS011;10584;50.854;12.902;2023-03-30T10:24:25;11.00;;;3.17;;
20846;SDS011;10584;50.854;12.902;2023-03-30T10:29:48;6.27;;;3.33;;
20846;SDS011;10584;50.854;12.902;2023-03-30T10:35:13;9.17;;;2.63;;
20846;SDS011;10584;50.854;12.902;2023-03-30T10:40:43;8.37;;;2.47;;
20846;SDS011;10584;50.854;12.902;2023-03-30T10:46:19;9.40;;;2.70;;
20846;SDS011;10584;50.854;12.902;2023-03-30T10:52:15;7.13;;;2.60;;
20846;SDS011;10584;50.854;12.902;2023-03-30T10:58:25;5.13;;;2.17;;
20846;SDS011;10584;50.854;12.902;2023-03-30T11:04:22;5.00;;;2.43;;
20846;SDS011;10584;50.854;12.902;2023-03-30T11:10:18;6.27;;;2.70;;
20846;SDS011;10584;50.854;12.902;2023-03-30T11:34:31;6.13;;;3.60;;
20846;SDS011;10584;50.854;12.902;2023-03-30T11:39:49;6.57;;;3.70;;
20846;SDS011;10584;50.854;12.902;2023-03-30T11:45:48;7.93;;;3.80;;
20846;SDS011;10584;50.854;12.902;2023-03-30T11:52:05;13.80;;;4.70;;
20846;SDS011;10584;50.854;12.902;2023-03-30T11:57:56;12.80;;;5.70;;
20846;SDS011;10584;50.854;12.902;2023-03-30T12:03:41;13.00;;;6.83;;
20846;SDS011;10584;50.854;12.902;2023-03-30T12:09:43;11.50;;;6.00;;
20846;SDS011;10584;50.854;12.902;2023-03-30T12:20:54;12.77;;;5.70;;
20846;SDS011;10584;50.854;12.902;2023-03-30T12:26:51;10.33;;;5.17;;
20846;SDS011;10584;50.854;12.902;2023-03-30T12:32:35;7.80;;;5.07;;
20846;SDS011;10584;50.854;12.902;2023-03-30T12:38:23;9.70;;;4.93;;
20846;SDS011;10584;50.854;12.902;2023-03-30T13:08:16;13.67;;;3.93;;
20846;SDS011;10584;50.854;12.902;2023-03-30T13:32:05;9.63;;;3.10;;
20846;SDS011;10584;50.854;12.902;2023-03-30T13:55:13;12.40;;;3.30;;
20846;SDS011;10584;50.854;12.902;2023-03-30T14:00:53;9.30;;;2.50;;
20846;SDS011;10584;50.854;12.902;2023-03-30T14:06:19;9.90;;;3.37;;
20846;SDS011;10584;50.854;12.902;2023-03-30T14:12:11;4.97;;;2.83;;
20846;SDS011;10584;50.854;12.902;2023-03-30T14:17:57;9.37;;;3.53;;
20846;SDS011;10584;50.854;12.902;2023-03-30T14:23:31;10.10;;;3.70;;
20846;SDS011;10584;50.854;12.902;2023-03-30T14:29:19;7.80;;;2.80;;
20846;SDS011;10584;50.854;12.902;2023-03-30T14:34:51;9.33;;;3.27;;
20846;SDS011;10584;50.854;12.902;2023-03-30T14:40:16;6.83;;;3.03;;
20846;SDS011;10584;50.854;12.902;2023-03-30T14:45:38;7.27;;;3.50;;
20846;SDS011;10584;50.854;12.902;2023-03-30T14:51:22;7.97;;;3.23;;
20846;SDS011;10584;50.854;12.902;2023-03-30T14:57:09;6.23;;;2.83;;
20846;SDS011;10584;50.854;12.902;2023-03-30T15:02:56;7.97;;;2.60;;
20846;SDS011;10584;50.854;12.902;2023-03-30T15:08:26;6.37;;;2.60;;
20846;SDS011;10584;50.854;12.902;2023-03-30T15:13:52;7.43;;;3.47;;
20846;SDS011;10584;50.854;12.902;2023-03-30T15:19:33;7.27;;;1.07;;
20846;SDS011;10584;50.854;12.902;2023-03-30T15:24:58;3.10;;;0.70;;
20846;SDS011;10584;50.854;12.902;2023-03-30T15:30:27;1.23;;;1.00;;
20846;SDS011;10584;50.854;12.902;2023-03-30T15:35:53;2.23;;;0.60;;
20846;SDS011;10584;50.854;12.902;2023-03-30T15:42:02;1.37;;;0.60;;
20846;SDS011;10584;50.854;12.902;2023-03-30T15:47:43;3.07;;;1.20;;
20846;SDS011;10584;50.854;12.902;2023-03-30T15:53:35;3.30;;;1.90;;
20846;SDS011;10584;50.854;12.902;2023-03-30T15:59:02;1.27;;;0.80;;
20846;SDS011;10584;50.854;12.902;2023-03-30T16:04:52;3.43;;;0.90;;
20846;SDS011;10584;50.854;12.902;2023-03-30T16:10:39;2.57;;;0.97;;
20846;SDS011;10584;50.854;12.902;2023-03-30T16:16:11;2.00;;;1.03;;
20846;SDS011;10584;50.854;12.902;2023-03-30T16:21:52;1.90;;;1.10;;
20846;SDS011;10584;50.854;12.902;2023-03-30T16:27:33;2.63;;;1.50;;
20846;SDS011;10584;50.854;12.902;2023-03-30T16:33:14;2.30;;;1.20;;
20846;SDS011;10584;50.854;12.902;2023-03-30T16:39:24;1.60;;;0.90;;
20846;SDS011;10584;50.854;12.902;2023-03-30T16:44:47;5.27;;;1.20;;
20846;SDS011;10584;50.854;12.902;2023-03-30T16:50:15;3.10;;;1.20;;
20846;SDS011;10584;50.854;12.902;2023-03-30T16:55:52;3.97;;;1.37;;
20846;SDS011;10584;50.854;12.902;2023-03-30T17:01:30;2.83;;;1.10;;
20846;SDS011;10584;50.854;12.902;2023-03-30T17:07:28;3.93;;;1.30;;
20846;SDS011;10584;50.854;12.902;2023-03-30T17:12:56;13.43;;;3.83;;
20846;SDS011;10584;50.854;12.902;2023-03-30T17:18:20;4.57;;;1.70;;
20846;SDS011;10584;50.854;12.902;2023-03-30T17:23:51;2.10;;;1.30;;
20846;SDS011;10584;50.854;12.902;2023-03-30T17:29:19;1.90;;;1.03;;
20846;SDS011;10584;50.854;12.902;2023-03-30T17:34:48;4.77;;;1.50;;
20846;SDS011;10584;50.854;12.902;2023-03-30T17:40:13;1.87;;;1.00;;
20846;SDS011;10584;50.854;12.902;2023-03-30T17:45:36;3.97;;;1.33;;
20846;SDS011;10584;50.854;12.902;2023-03-30T17:51:06;2.43;;;1.10;;
20846;SDS011;10584;50.854;12.902;2023-03-30T17:57:08;2.83;;;1.37;;
20846;SDS011;10584;50.854;12.902;2023-03-30T18:02:35;4.67;;;1.57;;
20846;SDS011;10584;50.854;12.902;2023-03-30T18:07:59;2.43;;;1.50;;
20846;SDS011;10584;50.854;12.902;2023-03-30T18:13:23;5.70;;;2.10;;
20846;SDS011;10584;50.854;12.902;2023-03-30T18:19:02;3.27;;;1.23;;
20846;SDS011;10584;50.854;12.902;2023-03-30T18:24:34;2.47;;;1.50;;
20846;SDS011;10584;50.854;12.902;2023-03-30T18:29:55;4.07;;;1.50;;
20846;SDS011;10584;50.854;12.902;2023-03-30T18:35:18;5.10;;;1.80;;
20846;SDS011;10584;50.854;12.902;2023-03-30T18:40:41;4.40;;;1.80;;
20846;SDS011;10584;50.854;12.902;2023-03-30T18:46:09;3.80;;;2.10;;
20846;SDS011;10584;50.854;12.902;2023-03-30T18:51:51;5.87;;;2.20;;
20846;SDS011;10584;50.854;12.902;2023-03-30T18:57:18;6.93;;;2.23;;
20846;SDS011;10584;50.854;12.902;2023-03-30T19:02:57;7.97;;;2.80;;
20846;SDS011;10584;50.854;12.902;2023-03-30T19:08:24;3.33;;;2.10;;
20846;SDS011;10584;50.854;12.902;2023-03-30T19:14:07;9.67;;;2.50;;
20846;SDS011;10584;50.854;12.902;2023-03-30T19:19:29;5.63;;;2.27;;
20846;SDS011;10584;50.854;12.902;2023-03-30T19:24:50;7.10;;;2.40;;
20846;SDS011;10584;50.854;12.902;2023-03-30T19:30:13;4.83;;;2.20;;
20846;SDS011;10584;50.854;12.902;2023-03-30T19:35:38;6.50;;;2.57;;
20846;SDS011;10584;50.854;12.902;2023-03-30T19:41:06;13.57;;;5.17;;
20846;SDS011;10584;50.854;12.902;2023-03-30T19:46:56;4.03;;;2.33;;
20846;SDS011;10584;50.854;12.902;2023-03-30T19:52:43;3.53;;;2.10;;
20846;SDS011;10584;50.854;12.902;2023-03-30T19:58:28;3.07;;;1.70;;
20846;SDS011;10584;50.854;12.902;2023-03-30T20:04:05;6.80;;;2.20;;
20846;SDS011;10584;50.854;12.902;2023-03-30T20:09:54;2.13;;;1.60;;
20846;SDS011;10584;50.854;12.902;2023-03-30T20:15:16;4.30;;;1.93;;
20846;SDS011;10584;50.854;12.902;2023-03-30T20:20:39;2.33;;;1.47;;
20846;SDS011;10584;50.854;12.902;2023-03-30T20:26:05;6.03;;;1.60;;
20846;SDS011;10584;50.854;12.902;2023-03-30T20:31:54;4.13;;;2.17;;
20846;SDS011;10584;50.854;12.902;2023-03-30T20:37:38;5.23;;;1.90;;
20846;SDS011;10584;50.854;12.902;2023-03-30T20:43:20;3.33;;;1.80;;
20846;SDS011;10584;50.854;12.902;2023-03-30T20:49:15;3.23;;;1.60;;
20846;SDS011;10584;50.854;12.902;2023-03-30T20:54:40;5.20;;;2.40;;
20846;SDS011;10584;50.854;12.902;2023-03-30T21:00:04;3.17;;;1.80;;
20846;SDS011;10584;50.854;12.902;2023-03-30T21:05:30;3.80;;;1.80;;
20846;SDS011;10584;50.854;12.902;2023-03-30T21:11:19;3.57;;;1.80;;
20846;SDS011;10584;50.854;12.902;2023-03-30T21:17:02;4.40;;;1.90;;
20846;SDS011;10584;50.854;12.902;2023-03-30T21:22:55;2.87;;;1.60;;
20846;SDS011;10584;50.854;12.902;2023-03-30T21:28:33;2.87;;;1.70;;
20846;SDS011;10584;50.854;12.902;2023-03-30T21:33:59;6.20;;;1.77;;
20846;SDS011;10584;50.854;12.902;2023-03-30T21:39:27;6.33;;;2.20;;
20846;SDS011;10584;50.854;12.902;2023-03-30T21:44:49;7.13;;;1.90;;
20846;SDS011;10584;50.854;12.902;2023-03-30T21:50:11;4.37;;;1.83;;
20846;SDS011;10584;50.854;12.902;2023-03-30T21:55:32;4.77;;;1.67;;
20846;SDS011;10584;50.854;12.902;2023-03-30T22:00:53;4.43;;;1.70;;
20846;SDS011;10584;50.854;12.902;2023-03-30T22:06:33;7.07;;;1.53;;
20846;SDS011;10584;50.854;12.902;2023-03-30T22:12:20;8.77;;;2.10;;
20846;SDS011;10584;50.854;12.902;2023-03-30T22:18:03;3.63;;;1.90;;
20846;SDS011;10584;50.854;12.902;2023-03-30T22:23:44;3.87;;;2.00;;
20846;SDS011;10584;50.854;12.902;2023-03-30T22:29:12;6.13;;;1.93;;
20846;SDS011;10584;50.854;12.902;2023-03-30T22:34:38;6.57;;;1.93;;
20846;SDS011;10584;50.854;12.902;2023-03-30T22:40:00;6.07;;;1.60;;
20846;SDS011;10584;50.854;12.902;2023-03-30T22:45:22;6.27;;;2.13;;
20846;SDS011;10584;50.854;12.902;2023-03-30T22:50:45;4.83;;;1.83;;
20846;SDS011;10584;50.854;12.902;2023-03-30T22:56:14;8.07;;;1.90;;
20846;SDS011;10584;50.854;12.902;2023-03-30T23:02:00;4.83;;;1.70;;
20846;SDS011;10584;50.854;12.902;2023-03-30T23:07:36;4.97;;;2.00;;
20846;SDS011;10584;50.854;12.902;2023-03-30T23:12:59;8.00;;;1.90;;
20846;SDS011;10584;50.854;12.902;2023-03-30T23:18:27;6.67;;;1.97;;
20846;SDS011;10584;50.854;12.902;2023-03-30T23:24:06;4.63;;;1.90;;
20846;SDS011;10584;50.854;12.902;2023-03-30T23:29:34;4.80;;;1.90;;
20846;SDS011;10584;50.854;12.902;2023-03-30T23:34:55;8.07;;;1.83;;
20846;SDS011;10584;50.854;12.902;2023-03-30T23:40:17;4.67;;;1.90;;
20846;SDS011;10584;50.854;12.902;2023-03-30T23:45:40;4.23;;;1.87;;
20846;SDS011;10584;50.854;12.902;2023-03-30T23:51:09;5.17;;;1.87;;
20846;SDS011;10584;50.854;12.902;2023-03-30T23:56:47;5.50;;;1.83;;
